Time;durP1;ratioP1;P1;durP2;ratioP2;P2;SDS_P1;SDS_P2;PMS_P1;PMS_P2;Temp;Humidity;BMP_temperature;BMP_pressure;BME280_temperature;BME280_humidity;BME280_pressure;Samples;Min_cycle;Max_cycle;Signal;HPM_P1;HPM_P2
2022/03/29 00:00:36;;;;;;;6.95;4.03;;;;;;;;;;5060632;28;20041;-72
2022/03/29 00:03:02;;;;;;;7.32;4.40;;;;;;;;;;5061771;28;20040;-72
2022/03/29 00:05:28;;;;;;;7.38;3.80;;;;;;;;;;5059718;28;20067;-72
2022/03/29 00:07:55;;;;;;;6.82;4.07;;;;;;;;;;5061612;28;20079;-73
2022/03/29 00:10:21;;;;;;;8.85;4.30;;;;;;;;;;5059179;28;20045;-73
2022/03/29 00:12:46;;;;;;;7.57;4.20;;;;;;;;;;5052495;28;20425;-73
2022/03/29 00:15:13;;;;;;;8.38;4.75;;;;;;;;;;5056699;28;20044;-73
2022/03/29 00:17:39;;;;;;;6.97;4.50;;;;;;;;;;5062645;28;20124;-73
2022/03/29 00:20:05;;;;;;;8.75;4.65;;;;;;;;;;5061744;28;20127;-73
2022/03/29 00:22:31;;;;;;;8.32;4.75;;;;;;;;;;5062749;28;20100;-73
2022/03/29 00:24:57;;;;;;;8.60;4.82;;;;;;;;;;5061207;28;20036;-74
2022/03/29 00:27:23;;;;;;;7.30;4.22;;;;;;;;;;5060511;28;20101;-73
2022/03/29 00:29:49;;;;;;;8.13;4.82;;;;;;;;;;5061548;28;20067;-73
2022/03/29 00:32:16;;;;;;;7.10;4.40;;;;;;;;;;5062615;28;20505;-74
2022/03/29 00:34:42;;;;;;;7.85;4.15;;;;;;;;;;5061343;28;20056;-73
2022/03/29 00:37:08;;;;;;;7.25;4.50;;;;;;;;;;5046233;28;20051;-73
2022/03/29 00:39:35;;;;;;;7.60;4.20;;;;;;;;;;5061781;28;20037;-73
2022/03/29 00:42:01;;;;;;;7.75;4.53;;;;;;;;;;5062777;28;20048;-73
2022/03/29 00:44:31;;;;;;;8.13;4.72;;;;;;;;;;5032548;28;20072;-73
2022/03/29 00:46:58;;;;;;;7.40;3.95;;;;;;;;;;5031797;28;20378;-74
2022/03/29 00:49:24;;;;;;;9.25;4.70;;;;;;;;;;5043238;28;20044;-74
2022/03/29 00:51:54;;;;;;;7.75;4.85;;;;;;;;;;5062124;28;20078;-74
2022/03/29 00:54:21;;;;;;;7.60;4.43;;;;;;;;;;5061141;28;20048;-73
2022/03/29 00:56:47;;;;;;;7.80;4.30;;;;;;;;;;5045461;28;20037;-74
2022/03/29 00:59:13;;;;;;;8.95;5.00;;;;;;;;;;5061798;28;20102;-74
2022/03/29 01:01:39;;;;;;;8.60;5.05;;;;;;;;;;5062130;28;20113;-73
2022/03/29 01:04:06;;;;;;;7.72;4.47;;;;;;;;;;5062255;28;20210;-74
2022/03/29 01:06:32;;;;;;;8.15;4.68;;;;;;;;;;5061079;28;20044;-73
2022/03/29 01:08:58;;;;;;;8.02;4.40;;;;;;;;;;5062056;28;20047;-73
2022/03/29 01:11:26;;;;;;;8.25;4.65;;;;;;;;;;5060840;28;20044;-73
2022/03/29 01:13:52;;;;;;;8.13;4.82;;;;;;;;;;5062155;28;20054;-74
2022/03/29 01:19:05;;;;;;;7.68;4.47;;;;;;;;;;5061861;28;20040;-74
2022/03/29 01:21:33;;;;;;;7.55;4.93;;;;;;;;;;5040594;28;20040;-73
2022/03/29 01:24:00;;;;;;;8.18;4.78;;;;;;;;;;5042120;28;20037;-73
2022/03/29 01:26:26;;;;;;;8.18;4.75;;;;;;;;;;5027766;28;20413;-74
2022/03/29 01:28:52;;;;;;;8.88;5.00;;;;;;;;;;5047086;28;20383;-73
2022/03/29 01:31:18;;;;;;;7.15;4.20;;;;;;;;;;5058577;28;20043;-73
2022/03/29 01:33:45;;;;;;;8.98;5.10;;;;;;;;;;5057271;28;20403;-73
2022/03/29 01:36:11;;;;;;;8.93;4.80;;;;;;;;;;5034600;28;20127;-74
2022/03/29 01:38:37;;;;;;;8.80;4.95;;;;;;;;;;5043854;28;20650;-73
2022/03/29 01:41:05;;;;;;;8.68;5.43;;;;;;;;;;5041271;28;20036;-73
2022/03/29 01:43:31;;;;;;;8.82;4.97;;;;;;;;;;5065910;28;20521;-73
2022/03/29 01:45:57;;;;;;;9.20;5.28;;;;;;;;;;5048343;28;20137;-74
2022/03/29 01:48:24;;;;;;;8.75;5.50;;;;;;;;;;5066335;28;20064;-73
2022/03/29 01:50:51;;;;;;;8.45;4.90;;;;;;;;;;5048103;28;20036;-73
2022/03/29 01:53:24;;;;;;;7.90;4.85;;;;;;;;;;5065878;28;20071;-73
2022/03/29 01:56:00;;;;;;;9.05;5.07;;;;;;;;;;5063934;28;20052;-73
2022/03/29 01:58:27;;;;;;;8.27;5.10;;;;;;;;;;5065837;28;20033;-73
2022/03/29 02:00:53;;;;;;;8.73;5.25;;;;;;;;;;5064134;28;20547;-73
2022/03/29 02:03:19;;;;;;;11.70;5.45;;;;;;;;;;5039122;28;20478;-73
2022/03/29 02:05:45;;;;;;;8.05;5.05;;;;;;;;;;5037794;28;20035;-73
2022/03/29 02:08:11;;;;;;;8.50;4.78;;;;;;;;;;5028128;28;20494;-73
2022/03/29 02:10:38;;;;;;;9.50;5.25;;;;;;;;;;5055773;28;20516;-73
2022/03/29 02:13:04;;;;;;;7.72;4.82;;;;;;;;;;5065604;28;20532;-73
2022/03/29 02:15:31;;;;;;;9.23;5.25;;;;;;;;;;5063710;28;20051;-72
2022/03/29 02:17:57;;;;;;;9.32;5.57;;;;;;;;;;5065286;28;20127;-73
2022/03/29 02:20:24;;;;;;;10.70;5.30;;;;;;;;;;5063234;28;20044;-72
2022/03/29 02:22:50;;;;;;;8.52;5.18;;;;;;;;;;5064739;28;20048;-73
2022/03/29 02:25:16;;;;;;;9.05;5.30;;;;;;;;;;5062971;28;20137;-73
2022/03/29 02:27:43;;;;;;;10.10;5.97;;;;;;;;;;5065047;28;20512;-73
2022/03/29 02:30:11;;;;;;;9.60;5.45;;;;;;;;;;5063476;28;20163;-73
2022/03/29 02:32:37;;;;;;;10.05;5.65;;;;;;;;;;5064835;28;20048;-73
2022/03/29 02:35:03;;;;;;;8.65;5.05;;;;;;;;;;5063428;28;20047;-73
2022/03/29 02:37:29;;;;;;;9.48;5.70;;;;;;;;;;5064510;28;20072;-73
2022/03/29 02:39:55;;;;;;;9.65;6.07;;;;;;;;;;5057672;28;20072;-73
2022/03/29 02:42:21;;;;;;;8.43;5.07;;;;;;;;;;5031171;28;20048;-73
2022/03/29 02:44:47;;;;;;;8.55;5.20;;;;;;;;;;5014501;28;21243;-73
2022/03/29 02:47:13;;;;;;;11.65;5.57;;;;;;;;;;5048597;28;20093;-73
2022/03/29 02:49:39;;;;;;;8.65;5.53;;;;;;;;;;5062068;28;20525;-74
2022/03/29 02:52:05;;;;;;;10.90;6.10;;;;;;;;;;5027318;28;20453;-72
2022/03/29 02:54:31;;;;;;;8.68;5.53;;;;;;;;;;5041767;28;20048;-73
2022/03/29 02:56:57;;;;;;;9.45;5.47;;;;;;;;;;5063059;28;20044;-73
2022/03/29 02:59:23;;;;;;;9.75;5.63;;;;;;;;;;5063227;28;20051;-73
2022/03/29 03:01:49;;;;;;;9.57;5.88;;;;;;;;;;5064641;28;20044;-73
2022/03/29 03:04:15;;;;;;;9.60;5.93;;;;;;;;;;5063229;28;20048;-73
2022/03/29 03:06:41;;;;;;;10.60;6.00;;;;;;;;;;5027918;28;20048;-73
2022/03/29 03:09:08;;;;;;;8.07;5.13;;;;;;;;;;5044568;28;20110;-73
2022/03/29 03:11:35;;;;;;;9.63;5.63;;;;;;;;;;5043917;28;20045;-73
2022/03/29 03:14:01;;;;;;;10.18;5.50;;;;;;;;;;5032056;28;20056;-73
2022/03/29 03:16:27;;;;;;;10.00;5.38;;;;;;;;;;5021179;28;20721;-73
2022/03/29 03:18:53;;;;;;;9.90;6.03;;;;;;;;;;5048123;28;20098;-73
2022/03/29 03:21:19;;;;;;;10.25;6.32;;;;;;;;;;5061954;28;20044;-73
2022/03/29 03:23:45;;;;;;;10.65;6.20;;;;;;;;;;5033095;28;20044;-73
2022/03/29 03:26:11;;;;;;;9.15;5.60;;;;;;;;;;5045560;28;20140;-73
2022/03/29 03:28:37;;;;;;;10.23;6.03;;;;;;;;;;5044430;28;20661;-73
2022/03/29 03:31:03;;;;;;;9.85;5.70;;;;;;;;;;5058652;28;20124;-73
2022/03/29 03:33:29;;;;;;;9.38;5.45;;;;;;;;;;5063916;28;20078;-73
2022/03/29 03:35:55;;;;;;;10.07;5.90;;;;;;;;;;5062478;28;20427;-73
2022/03/29 03:38:21;;;;;;;11.10;6.28;;;;;;;;;;5063903;28;20040;-73
2022/03/29 03:40:48;;;;;;;11.70;6.10;;;;;;;;;;5062042;28;20111;-73
2022/03/29 03:43:13;;;;;;;9.38;5.57;;;;;;;;;;5061718;28;20033;-73
2022/03/29 03:45:39;;;;;;;9.80;5.82;;;;;;;;;;5051586;28;20084;-73
2022/03/29 03:48:06;;;;;;;9.13;5.53;;;;;;;;;;5043923;28;20037;-73
2022/03/29 03:50:32;;;;;;;9.63;5.93;;;;;;;;;;5053345;28;20056;-73
2022/03/29 03:53:00;;;;;;;10.15;6.20;;;;;;;;;;5063655;28;20035;-73
2022/03/29 03:55:26;;;;;;;10.95;5.80;;;;;;;;;;5061232;28;20040;-73
2022/03/29 03:57:52;;;;;;;10.05;6.13;;;;;;;;;;5063325;28;20044;-73
2022/03/29 04:00:21;;;;;;;10.52;6.15;;;;;;;;;;5053690;28;20076;-73
2022/03/29 04:02:49;;;;;;;9.80;5.57;;;;;;;;;;5026834;28;20059;-73
2022/03/29 04:05:15;;;;;;;10.30;6.20;;;;;;;;;;5050938;28;20620;-73
2022/03/29 04:07:41;;;;;;;9.63;5.90;;;;;;;;;;5063400;28;20041;-73
2022/03/29 04:10:08;;;;;;;10.52;6.18;;;;;;;;;;5061692;28;20048;-73
2022/03/29 04:12:34;;;;;;;10.18;5.78;;;;;;;;;;5063176;28;20048;-73
2022/03/29 04:15:00;;;;;;;11.52;6.60;;;;;;;;;;5061062;28;20040;-73
2022/03/29 04:17:26;;;;;;;10.23;6.00;;;;;;;;;;5063311;28;20106;-73
2022/03/29 04:19:52;;;;;;;9.85;6.38;;;;;;;;;;5045636;28;20037;-73
2022/03/29 04:22:18;;;;;;;10.20;6.07;;;;;;;;;;5056194;28;20055;-73
2022/03/29 04:24:45;;;;;;;9.68;6.05;;;;;;;;;;5049550;28;20531;-73
2022/03/29 04:27:11;;;;;;;10.88;5.97;;;;;;;;;;5040866;28;20122;-73
2022/03/29 04:29:37;;;;;;;11.55;6.25;;;;;;;;;;5045254;28;20490;-73
2022/03/29 04:32:03;;;;;;;8.88;5.68;;;;;;;;;;5063214;28;20036;-72
2022/03/29 04:34:29;;;;;;;10.27;5.63;;;;;;;;;;5061124;28;20057;-73
2022/03/29 04:36:58;;;;;;;10.60;5.82;;;;;;;;;;5063162;28;20048;-73
2022/03/29 04:39:25;;;;;;;13.95;6.28;;;;;;;;;;5044792;28;20036;-73
2022/03/29 04:41:51;;;;;;;10.60;6.45;;;;;;;;;;5045373;28;20571;-72
2022/03/29 04:44:17;;;;;;;9.98;6.43;;;;;;;;;;5061560;28;20036;-73
2022/03/29 04:46:44;;;;;;;10.77;6.60;;;;;;;;;;5038533;28;20094;-73
2022/03/29 04:49:10;;;;;;;9.88;6.05;;;;;;;;;;5024458;28;20071;-73
2022/03/29 04:51:36;;;;;;;10.27;6.60;;;;;;;;;;5026119;28;20036;-73
2022/03/29 04:54:02;;;;;;;10.93;5.75;;;;;;;;;;5042498;28;20052;-73
2022/03/29 04:56:29;;;;;;;9.20;5.68;;;;;;;;;;5043301;28;20055;-73
2022/03/29 04:58:55;;;;;;;9.02;5.90;;;;;;;;;;5052215;28;20043;-73
2022/03/29 05:01:21;;;;;;;10.90;6.13;;;;;;;;;;5058596;28;20502;-73
2022/03/29 05:03:47;;;;;;;10.63;6.60;;;;;;;;;;5062351;28;20048;-73
2022/03/29 05:06:13;;;;;;;11.60;6.15;;;;;;;;;;5060189;28;20052;-73
2022/03/29 05:08:39;;;;;;;11.88;6.65;;;;;;;;;;5045804;28;20104;-73
2022/03/29 05:11:05;;;;;;;10.13;6.07;;;;;;;;;;5060093;28;20123;-73
2022/03/29 05:13:31;;;;;;;9.43;5.90;;;;;;;;;;5062205;28;20171;-73
2022/03/29 05:15:57;;;;;;;13.48;6.32;;;;;;;;;;5060518;28;20097;-72
2022/03/29 05:18:23;;;;;;;10.15;6.07;;;;;;;;;;5049996;28;20116;-73
2022/03/29 05:20:49;;;;;;;10.35;6.30;;;;;;;;;;5054408;28;20186;-73
2022/03/29 05:23:18;;;;;;;11.13;6.30;;;;;;;;;;5062195;28;20052;-73
2022/03/29 05:25:44;;;;;;;11.38;6.43;;;;;;;;;;5053316;28;20182;-73
2022/03/29 05:28:10;;;;;;;9.77;6.40;;;;;;;;;;5044953;28;20626;-73
2022/03/29 05:30:36;;;;;;;10.35;6.32;;;;;;;;;;5049872;28;20037;-73
2022/03/29 05:33:03;;;;;;;11.82;6.50;;;;;;;;;;5044553;28;20056;-73
2022/03/29 05:35:30;;;;;;;10.85;6.43;;;;;;;;;;5055417;28;20754;-73
2022/03/29 05:38:01;;;;;;;11.25;6.97;;;;;;;;;;5041381;28;20106;-73
2022/03/29 05:40:28;;;;;;;14.32;6.60;;;;;;;;;;5050638;28;20045;-73
2022/03/29 05:42:57;;;;;;;11.45;6.00;;;;;;;;;;5032796;28;20134;-74
2022/03/29 05:45:23;;;;;;;14.88;6.68;;;;;;;;;;5026169;28;20044;-73
2022/03/29 05:50:34;;;;;;;;;;;;;;;;;;5052702;28;20509;-73
2022/03/29 05:53:01;;;;;;;12.27;6.30;;;;;;;;;;5015249;28;19930;-74
2022/03/29 05:55:28;;;;;;;12.40;6.55;;;;;;;;;;5028194;28;20874;-73
2022/03/29 05:57:54;;;;;;;10.93;5.85;;;;;;;;;;5024924;28;21013;-73
2022/03/29 06:00:23;;;;;;;24.95;14.60;;;;;;;;;;5044573;28;20129;-73
2022/03/29 06:02:49;;;;;;;13.32;7.32;;;;;;;;;;5041861;28;20048;-73
2022/03/29 06:05:15;;;;;;;12.88;7.22;;;;;;;;;;5049360;28;20051;-73
2022/03/29 06:07:41;;;;;;;18.35;10.13;;;;;;;;;;5062072;28;20040;-73
2022/03/29 06:10:07;;;;;;;17.95;9.55;;;;;;;;;;5058961;28;20032;-73
2022/03/29 06:12:36;;;;;;;16.95;9.60;;;;;;;;;;5061261;28;20029;-73
2022/03/29 06:15:03;;;;;;;18.83;9.73;;;;;;;;;;5043154;28;20044;-73
2022/03/29 06:17:29;;;;;;;16.55;9.73;;;;;;;;;;5061470;28;20094;-73
2022/03/29 06:19:55;;;;;;;16.67;9.45;;;;;;;;;;5060240;28;20040;-73
2022/03/29 06:22:22;;;;;;;14.38;9.07;;;;;;;;;;5061132;28;20045;-73
2022/03/29 06:24:48;;;;;;;17.88;9.77;;;;;;;;;;5059894;28;20724;-73
2022/03/29 06:27:14;;;;;;;16.35;9.60;;;;;;;;;;5064779;28;20033;-74
2022/03/29 06:29:40;;;;;;;14.85;8.63;;;;;;;;;;5047901;28;20047;-73
2022/03/29 06:32:07;;;;;;;16.10;8.60;;;;;;;;;;5065087;28;20036;-73
2022/03/29 06:34:33;;;;;;;16.05;9.02;;;;;;;;;;5063611;28;20052;-73
2022/03/29 06:37:00;;;;;;;13.95;8.60;;;;;;;;;;5064322;28;20101;-74
2022/03/29 06:39:27;;;;;;;13.55;8.18;;;;;;;;;;5063121;28;20036;-73
2022/03/29 06:41:54;;;;;;;17.15;8.98;;;;;;;;;;5064505;28;20122;-74
2022/03/29 06:44:20;;;;;;;14.27;8.45;;;;;;;;;;5063405;28;20053;-74
2022/03/29 06:46:50;;;;;;;14.57;8.88;;;;;;;;;;5065163;28;20089;-73
2022/03/29 06:49:16;;;;;;;18.52;8.80;;;;;;;;;;5064307;28;20098;-74
2022/03/29 06:51:44;;;;;;;14.82;7.93;;;;;;;;;;5064642;28;20043;-74
2022/03/29 06:54:10;;;;;;;11.07;7.22;;;;;;;;;;5064155;28;20506;-73
2022/03/29 06:56:36;;;;;;;13.40;7.68;;;;;;;;;;5063657;28;20044;-74
2022/03/29 06:59:03;;;;;;;12.60;8.23;;;;;;;;;;5064989;28;20048;-73
2022/03/29 07:01:29;;;;;;;17.38;8.30;;;;;;;;;;5063368;28;20087;-74
2022/03/29 07:03:59;;;;;;;16.15;8.27;;;;;;;;;;5064999;28;20044;-73
2022/03/29 07:06:25;;;;;;;13.75;8.32;;;;;;;;;;5063099;28;20642;-74
2022/03/29 07:11:36;;;;;;;13.93;8.02;;;;;;;;;;5063614;28;20657;-74
2022/03/29 07:14:06;;;;;;;12.52;7.43;;;;;;;;;;5064619;28;20177;-74
2022/03/29 07:16:32;;;;;;;13.50;7.78;;;;;;;;;;5062834;28;20536;-73
2022/03/29 07:18:58;;;;;;;13.40;7.57;;;;;;;;;;5064787;28;20044;-73
2022/03/29 07:21:24;;;;;;;13.07;7.55;;;;;;;;;;5046399;28;20036;-73
2022/03/29 07:23:50;;;;;;;12.38;7.65;;;;;;;;;;5064056;28;20044;-73
2022/03/29 07:26:16;;;;;;;13.50;7.57;;;;;;;;;;5062054;28;20051;-73
2022/03/29 07:28:42;;;;;;;12.55;7.00;;;;;;;;;;5064352;28;20041;-73
2022/03/29 07:31:08;;;;;;;13.07;7.40;;;;;;;;;;5062545;28;20120;-74
2022/03/29 07:33:34;;;;;;;11.93;7.80;;;;;;;;;;5063825;28;20136;-73
2022/03/29 07:36:03;;;;;;;14.20;7.30;;;;;;;;;;5062775;28;20131;-73
2022/03/29 07:38:29;;;;;;;13.75;7.60;;;;;;;;;;5046842;28;20528;-73
2022/03/29 07:40:55;;;;;;;11.82;7.47;;;;;;;;;;5062710;28;20036;-74
2022/03/29 07:43:22;;;;;;;15.63;7.63;;;;;;;;;;5064373;28;20079;-73
2022/03/29 07:45:48;;;;;;;13.13;7.88;;;;;;;;;;5062476;28;20414;-73
2022/03/29 07:48:14;;;;;;;15.60;7.72;;;;;;;;;;5063349;28;20045;-73
2022/03/29 07:50:41;;;;;;;13.75;7.55;;;;;;;;;;5046306;28;20503;-73
2022/03/29 07:53:07;;;;;;;10.85;6.78;;;;;;;;;;5047225;28;20040;-73
2022/03/29 07:55:33;;;;;;;13.63;7.50;;;;;;;;;;5061537;28;20056;-74
2022/03/29 07:57:59;;;;;;;15.90;7.95;;;;;;;;;;5047274;28;20571;-73
2022/03/29 08:00:31;;;;;;;12.40;7.20;;;;;;;;;;5062999;28;20109;-73
2022/03/29 08:02:58;;;;;;;13.25;6.95;;;;;;;;;;5063617;28;20083;-73
2022/03/29 08:05:25;;;;;;;14.20;7.38;;;;;;;;;;5045770;28;20044;-73
2022/03/29 08:07:51;;;;;;;11.18;7.18;;;;;;;;;;5063167;28;20044;-73
2022/03/29 08:10:17;;;;;;;14.77;7.18;;;;;;;;;;5044331;28;20048;-73
2022/03/29 08:12:43;;;;;;;13.82;7.32;;;;;;;;;;5063136;28;20049;-73
2022/03/29 08:15:10;;;;;;;10.05;6.15;;;;;;;;;;5062149;28;20766;-73
2022/03/29 08:17:36;;;;;;;13.82;7.30;;;;;;;;;;5063157;28;20666;-73
2022/03/29 08:20:05;;;;;;;12.05;7.35;;;;;;;;;;5061604;28;20048;-73
2022/03/29 08:22:31;;;;;;;12.85;6.65;;;;;;;;;;5063023;28;20070;-73
2022/03/29 08:24:57;;;;;;;11.50;7.05;;;;;;;;;;5061419;28;20093;-73
2022/03/29 08:27:23;;;;;;;13.05;7.63;;;;;;;;;;5063015;28;20128;-73
2022/03/29 08:29:49;;;;;;;9.95;6.63;;;;;;;;;;5062279;28;20040;-77
2022/03/29 08:32:15;;;;;;;12.57;6.95;;;;;;;;;;5062776;28;20045;-73
2022/03/29 08:34:41;;;;;;;13.63;6.30;;;;;;;;;;5061158;28;20041;-73
2022/03/29 08:37:07;;;;;;;12.32;7.20;;;;;;;;;;5062765;28;20063;-73
2022/03/29 08:39:33;;;;;;;13.82;7.55;;;;;;;;;;5055752;28;20135;-73
2022/03/29 08:42:02;;;;;;;10.73;6.82;;;;;;;;;;5046101;28;20040;-74
2022/03/29 08:44:29;;;;;;;11.82;6.53;;;;;;;;;;5045697;28;20677;-73
2022/03/29 08:46:56;;;;;;;11.95;7.18;;;;;;;;;;5062791;28;20117;-73
2022/03/29 08:49:22;;;;;;;11.32;6.35;;;;;;;;;;5060669;28;20041;-73
2022/03/29 08:51:49;;;;;;;12.52;6.95;;;;;;;;;;5061675;28;20040;-73
2022/03/29 08:54:15;;;;;;;10.77;6.20;;;;;;;;;;5061455;28;20472;-73
2022/03/29 08:56:41;;;;;;;10.70;6.95;;;;;;;;;;5045500;28;20044;-73
2022/03/29 08:59:07;;;;;;;12.98;6.93;;;;;;;;;;5045610;28;20044;-73
2022/03/29 09:01:33;;;;;;;12.15;6.93;;;;;;;;;;5045000;28;20123;-73
2022/03/29 09:04:04;;;;;;;12.55;7.03;;;;;;;;;;5062606;28;20129;-73
2022/03/29 09:06:30;;;;;;;11.57;6.28;;;;;;;;;;5060660;28;20052;-73
2022/03/29 09:08:56;;;;;;;10.82;6.50;;;;;;;;;;5044242;28;20094;-73
2022/03/29 09:11:22;;;;;;;11.65;7.20;;;;;;;;;;5058820;28;20036;-73
2022/03/29 09:14:01;;;;;;;12.07;6.45;;;;;;;;;;5061664;28;20075;-73
2022/03/29 09:16:29;;;;;;;12.15;6.53;;;;;;;;;;5044743;28;20708;-73
2022/03/29 09:18:56;;;;;;;11.10;6.22;;;;;;;;;;5062211;28;20059;-73
2022/03/29 09:21:24;;;;;;;12.73;7.00;;;;;;;;;;5026989;28;20557;-73
2022/03/29 09:24:06;;;;;;;12.32;6.40;;;;;;;;;;5042186;28;20713;-73
2022/03/29 09:26:32;;;;;;;12.90;6.95;;;;;;;;;;5059407;28;20428;-73
2022/03/29 09:28:58;;;;;;;10.05;6.50;;;;;;;;;;5052675;28;20047;-73
2022/03/29 09:31:27;;;;;;;10.80;5.95;;;;;;;;;;5070131;28;20036;-73
2022/03/29 09:34:09;;;;;;;10.98;6.07;;;;;;;;;;5070629;28;20521;-74
2022/03/29 09:36:51;;;;;;;10.75;6.60;;;;;;;;;;5049743;28;20102;-73
2022/03/29 09:39:49;;;;;;;12.68;6.63;;;;;;;;;;5061279;28;20075;-73
2022/03/29 09:42:17;;;;;;;11.13;6.78;;;;;;;;;;5040288;28;20052;-73
2022/03/29 09:44:43;;;;;;;10.93;6.50;;;;;;;;;;5061378;28;20052;-73
2022/03/29 09:47:11;;;;;;;11.32;6.20;;;;;;;;;;5061662;28;20033;-73
2022/03/29 09:49:56;;;;;;;13.80;7.03;;;;;;;;;;5061035;28;20075;-73
2022/03/29 09:52:24;;;;;;;11.77;5.97;;;;;;;;;;5062021;28;20136;-73
2022/03/29 09:55:13;;;;;;;13.38;6.53;;;;;;;;;;5060389;28;20087;-73
2022/03/29 09:57:44;;;;;;;10.43;6.05;;;;;;;;;;5062481;28;20642;-73
2022/03/29 10:00:16;;;;;;;11.82;6.40;;;;;;;;;;5053601;28;20540;-73
2022/03/29 10:02:45;;;;;;;11.35;6.28;;;;;;;;;;5045873;28;20052;-73
2022/03/29 10:05:11;;;;;;;9.73;5.43;;;;;;;;;;5052315;28;20111;-73
2022/03/29 10:07:41;;;;;;;10.68;5.85;;;;;;;;;;5065617;28;20044;-73
2022/03/29 10:10:08;;;;;;;9.82;6.00;;;;;;;;;;5047588;28;20043;-73
2022/03/29 10:12:35;;;;;;;10.73;5.95;;;;;;;;;;5065899;28;20041;-73
2022/03/29 10:15:01;;;;;;;10.07;5.85;;;;;;;;;;5063741;28;20114;-73
2022/03/29 10:17:28;;;;;;;10.65;5.65;;;;;;;;;;5045868;28;20072;-73
2022/03/29 10:19:55;;;;;;;12.77;5.68;;;;;;;;;;5050409;28;20040;-73
2022/03/29 10:22:22;;;;;;;8.40;5.07;;;;;;;;;;5065351;28;20569;-73
2022/03/29 10:24:48;;;;;;;9.93;5.55;;;;;;;;;;5063570;28;20040;-73
2022/03/29 10:27:16;;;;;;;11.43;5.28;;;;;;;;;;5048201;28;20044;-73
2022/03/29 10:29:42;;;;;;;10.10;5.60;;;;;;;;;;5064489;28;20560;-73
2022/03/29 10:32:10;;;;;;;11.15;6.15;;;;;;;;;;5065350;28;20609;-73
2022/03/29 10:34:42;;;;;;;9.85;5.43;;;;;;;;;;5063731;28;20119;-72
2022/03/29 10:37:09;;;;;;;11.75;6.18;;;;;;;;;;5064759;28;20047;-73
2022/03/29 10:39:55;;;;;;;9.63;5.00;;;;;;;;;;5063367;28;20120;-73
2022/03/29 10:42:33;;;;;;;9.38;5.45;;;;;;;;;;5064600;28;20048;-72
2022/03/29 10:45:00;;;;;;;10.45;5.60;;;;;;;;;;5063139;28;20557;-72
2022/03/29 10:47:27;;;;;;;9.93;5.35;;;;;;;;;;5065256;28;20123;-72
2022/03/29 10:49:53;;;;;;;9.68;5.25;;;;;;;;;;5064702;28;20036;-74
2022/03/29 10:52:22;;;;;;;10.85;5.38;;;;;;;;;;5048104;28;20591;-74
2022/03/29 10:54:49;;;;;;;9.80;5.15;;;;;;;;;;5062917;28;20109;-73
2022/03/29 10:57:25;;;;;;;13.13;5.20;;;;;;;;;;5064608;28;20123;-73
2022/03/29 10:59:58;;;;;;;9.65;5.30;;;;;;;;;;5047567;28;20047;-74
2022/03/29 11:02:25;;;;;;;11.07;5.53;;;;;;;;;;5047745;28;20048;-74
2022/03/29 11:05:10;;;;;;;9.55;5.35;;;;;;;;;;5062174;28;20038;-74
2022/03/29 11:07:36;;;;;;;10.02;5.10;;;;;;;;;;5064945;28;20048;-71
2022/03/29 11:10:14;;;;;;;11.50;5.45;;;;;;;;;;5062337;28;20029;-71
2022/03/29 11:12:41;;;;;;;10.80;5.35;;;;;;;;;;5046840;28;20033;-72
2022/03/29 11:15:32;;;;;;;11.15;5.78;;;;;;;;;;5063005;28;20048;-72
2022/03/29 11:17:58;;;;;;;10.63;5.20;;;;;;;;;;5064146;28;20651;-72
2022/03/29 11:20:29;;;;;;;9.95;4.75;;;;;;;;;;5063116;28;20668;-71
2022/03/29 11:22:57;;;;;;;10.25;5.40;;;;;;;;;;5047546;28;20097;-72
2022/03/29 11:25:23;;;;;;;8.85;4.85;;;;;;;;;;5062123;28;20048;-72
2022/03/29 11:27:49;;;;;;;9.18;4.78;;;;;;;;;;5036262;28;20393;-72
2022/03/29 11:30:15;;;;;;;10.80;4.90;;;;;;;;;;5036235;28;20041;-72
2022/03/29 11:32:43;;;;;;;9.80;4.82;;;;;;;;;;5064164;28;20037;-72
2022/03/29 11:35:11;;;;;;;8.88;4.55;;;;;;;;;;5046497;28;20040;-72
2022/03/29 11:37:40;;;;;;;9.80;5.32;;;;;;;;;;5064544;28;20098;-72
2022/03/29 11:40:07;;;;;;;10.93;5.10;;;;;;;;;;5062567;28;20067;-72
2022/03/29 11:42:44;;;;;;;8.73;4.80;;;;;;;;;;5063678;28;20042;-74
2022/03/29 11:45:11;;;;;;;9.25;4.93;;;;;;;;;;5046344;28;20045;-72
2022/03/29 11:47:38;;;;;;;8.55;4.28;;;;;;;;;;5063930;28;20478;-72
2022/03/29 11:50:05;;;;;;;9.13;4.43;;;;;;;;;;5062366;28;20094;-74
2022/03/29 11:52:34;;;;;;;8.18;4.20;;;;;;;;;;5046960;28;20472;-72
2022/03/29 11:55:01;;;;;;;8.20;4.40;;;;;;;;;;5049943;28;20080;-72
2022/03/29 11:57:28;;;;;;;9.10;4.57;;;;;;;;;;5064036;28;20064;-72
2022/03/29 11:59:55;;;;;;;8.77;4.50;;;;;;;;;;5061573;28;20736;-72
2022/03/29 12:02:25;;;;;;;9.57;4.70;;;;;;;;;;5063603;28;20124;-72
2022/03/29 12:04:51;;;;;;;8.35;4.72;;;;;;;;;;5045660;28;20497;-71
2022/03/29 12:07:17;;;;;;;8.43;4.35;;;;;;;;;;5063229;28;20047;-72
2022/03/29 12:09:47;;;;;;;8.32;4.40;;;;;;;;;;5061998;28;20040;-72
2022/03/29 12:12:13;;;;;;;8.32;4.30;;;;;;;;;;5063043;28;20070;-72
2022/03/29 12:14:39;;;;;;;7.85;3.97;;;;;;;;;;5062411;28;20107;-72
2022/03/29 12:17:08;;;;;;;10.43;4.65;;;;;;;;;;5063170;28;20056;-72
2022/03/29 12:19:34;;;;;;;9.13;4.50;;;;;;;;;;5062244;28;20047;-72
2022/03/29 12:22:11;;;;;;;11.38;4.55;;;;;;;;;;5062741;28;20118;-72
2022/03/29 12:24:44;;;;;;;9.77;4.47;;;;;;;;;;5061961;28;20139;-71
2022/03/29 12:27:14;;;;;;;8.95;4.28;;;;;;;;;;5062745;28;20083;-71
2022/03/29 12:29:49;;;;;;;9.18;4.75;;;;;;;;;;5045365;28;20044;-71
2022/03/29 12:32:16;;;;;;;15.30;4.55;;;;;;;;;;5063338;28;20632;-71
2022/03/29 12:34:43;;;;;;;12.20;4.97;;;;;;;;;;5062949;28;20785;-71
2022/03/29 12:37:16;;;;;;;11.27;4.65;;;;;;;;;;5059993;28;20063;-70
2022/03/29 12:39:43;;;;;;;10.23;4.85;;;;;;;;;;5028763;28;20045;-70
2022/03/29 12:42:16;;;;;;;8.88;4.35;;;;;;;;;;5010612;28;20048;-70
2022/03/29 12:44:48;;;;;;;9.60;4.40;;;;;;;;;;5052146;28;20056;-71
2022/03/29 12:47:15;;;;;;;9.30;4.60;;;;;;;;;;5048619;28;20560;-70
2022/03/29 12:49:41;;;;;;;10.13;4.30;;;;;;;;;;5044426;28;20044;-71
2022/03/29 12:52:09;;;;;;;9.85;4.82;;;;;;;;;;5025717;28;20044;-70
2022/03/29 12:54:38;;;;;;;10.68;3.80;;;;;;;;;;5045685;28;20157;-70
2022/03/29 12:57:05;;;;;;;11.30;4.47;;;;;;;;;;5035942;28;20482;-71
2022/03/29 12:59:36;;;;;;;11.90;4.72;;;;;;;;;;5046156;28;20130;-70
2022/03/29 13:02:14;;;;;;;14.40;6.28;;;;;;;;;;5027556;28;20621;-70
2022/03/29 13:04:40;;;;;;;14.05;6.50;;;;;;;;;;5047661;28;20120;-70
2022/03/29 13:07:07;;;;;;;17.45;6.70;;;;;;;;;;5044908;28;20171;-71
2022/03/29 13:09:33;;;;;;;18.48;6.50;;;;;;;;;;5039686;28;20152;-68
2022/03/29 13:12:11;;;;;;;16.95;6.30;;;;;;;;;;5041569;28;20064;-69
2022/03/29 13:14:37;;;;;;;16.55;6.93;;;;;;;;;;5039141;28;20060;-70
2022/03/29 13:17:03;;;;;;;25.27;7.65;;;;;;;;;;5016906;28;20052;-73
2022/03/29 13:19:29;;;;;;;18.27;6.72;;;;;;;;;;5035748;28;20757;-66
2022/03/29 13:21:59;;;;;;;18.98;6.25;;;;;;;;;;5041321;28;20049;-69
2022/03/29 13:24:34;;;;;;;21.80;6.00;;;;;;;;;;5011296;28;20048;-70
2022/03/29 13:27:00;;;;;;;;;;;;;;;;;;5028364;28;20044;-70
2022/03/29 13:29:27;;;;;;;20.88;6.70;;;;;;;;;;5047214;28;19931;-68
2022/03/29 13:31:54;;;;;;;22.10;6.38;;;;;;;;;;5048105;28;20057;-68
2022/03/29 13:34:20;;;;;;;16.23;6.25;;;;;;;;;;5049519;28;20060;-67
2022/03/29 13:36:46;;;;;;;17.85;5.88;;;;;;;;;;5030390;28;20117;-66
2022/03/29 13:39:14;;;;;;;16.85;5.88;;;;;;;;;;5048077;28;20055;-69
2022/03/29 13:41:40;;;;;;;20.13;6.13;;;;;;;;;;5033246;28;20126;-67
2022/03/29 13:44:06;;;;;;;15.50;5.55;;;;;;;;;;5032943;28;20056;-69
2022/03/29 13:46:32;;;;;;;13.07;5.65;;;;;;;;;;5029967;28;20685;-66
2022/03/29 13:48:59;;;;;;;16.90;5.75;;;;;;;;;;5048370;28;20047;-66
2022/03/29 13:51:25;;;;;;;16.10;5.43;;;;;;;;;;5047720;28;20049;-71
2022/03/29 13:53:51;;;;;;;14.52;5.40;;;;;;;;;;5049070;28;20123;-71
2022/03/29 13:56:17;;;;;;;12.98;5.55;;;;;;;;;;5028744;28;20159;-69
2022/03/29 13:58:44;;;;;;;15.88;5.18;;;;;;;;;;5032445;28;20044;-68
2022/03/29 14:01:10;;;;;;;10.25;5.18;;;;;;;;;;5025939;28;20037;-70
2022/03/29 14:03:36;;;;;;;12.30;4.82;;;;;;;;;;5045894;28;20038;-74
2022/03/29 14:06:02;;;;;;;12.38;4.93;;;;;;;;;;5031958;28;20083;-72
2022/03/29 14:08:29;;;;;;;11.52;4.57;;;;;;;;;;5035221;28;20520;-75
2022/03/29 14:10:59;;;;;;;11.90;4.55;;;;;;;;;;5042979;28;20040;-74
2022/03/29 14:13:30;;;;;;;9.30;4.45;;;;;;;;;;5052556;28;20089;-74
2022/03/29 14:15:57;;;;;;;12.13;4.53;;;;;;;;;;5048457;28;20044;-71
2022/03/29 14:18:23;;;;;;;9.15;4.68;;;;;;;;;;5050581;28;20052;-72
2022/03/29 14:20:50;;;;;;;11.15;4.43;;;;;;;;;;5046318;28;20071;-72
2022/03/29 14:23:16;;;;;;;10.48;4.35;;;;;;;;;;5044185;28;20518;-73
2022/03/29 14:25:42;;;;;;;11.27;4.80;;;;;;;;;;5043284;28;20498;-73
2022/03/29 14:28:09;;;;;;;9.45;4.13;;;;;;;;;;5039035;28;20279;-73
2022/03/29 14:30:36;;;;;;;11.73;4.43;;;;;;;;;;5028647;28;20029;-73
2022/03/29 14:33:03;;;;;;;11.05;4.20;;;;;;;;;;5046841;28;20056;-67
2022/03/29 14:35:29;;;;;;;12.68;4.70;;;;;;;;;;5044951;28;20072;-73
2022/03/29 14:37:55;;;;;;;15.00;5.57;;;;;;;;;;5052615;28;20585;-73
2022/03/29 14:40:21;;;;;;;11.25;5.03;;;;;;;;;;5029609;28;20131;-68
2022/03/29 14:42:48;;;;;;;12.48;4.75;;;;;;;;;;5059606;28;20072;-68
2022/03/29 14:45:14;;;;;;;9.63;4.13;;;;;;;;;;5037391;28;20048;-67